createdAt,value
2019-02-22T00:00:43.019Z,48.49
2019-02-22T00:01:42.979Z,47.25
2019-02-22T00:02:42.975Z,47.54
2019-02-22T00:03:42.977Z,45.64
2019-02-22T00:04:42.974Z,42.60
2019-02-22T00:05:42.966Z,40.88
2019-02-22T00:06:43.007Z,39.91
2019-02-22T00:07:42.967Z,38.87
2019-02-22T00:08:42.966Z,38.77
2019-02-22T00:09:49.409Z,36.98
2019-02-22T00:10:42.992Z,35.54
2019-02-22T00:11:42.956Z,34.11
2019-02-22T00:12:42.953Z,33.26
2019-02-22T00:13:42.947Z,31.64
2019-02-22T00:14:42.948Z,29.84
2019-02-22T00:15:42.950Z,27.65
2019-02-22T00:16:42.980Z,24.90
2019-02-22T00:17:42.998Z,22.90
2019-02-22T00:18:42.943Z,21.86
2019-02-22T00:19:42.936Z,21.09
2019-02-22T00:20:42.967Z,21.28
2019-02-22T00:21:42.931Z,20.81
2019-02-22T00:22:42.923Z,20.53
2019-02-22T00:23:42.919Z,19.76
2019-02-22T00:24:42.925Z,19.67
2019-02-22T00:25:42.955Z,19.76
2019-02-22T00:26:42.958Z,19.86
2019-02-22T00:27:42.919Z,20.34
2019-02-22T00:28:42.915Z,20.72
2019-02-22T00:29:42.916Z,21.28
2019-02-22T00:30:42.911Z,21.38
2019-02-22T00:31:42.933Z,21.47
2019-02-22T00:32:42.903Z,23.57
2019-02-22T00:33:42.898Z,26.13
2019-02-22T00:34:42.994Z,26.98
2019-02-22T00:35:42.953Z,28.71
2019-02-22T00:36:42.896Z,30.14
2019-02-22T00:37:42.931Z,28.33
2019-02-22T00:38:42.887Z,31.09
2019-02-22T00:39:42.885Z,32.90
2019-02-22T00:40:42.884Z,33.84
2019-02-22T00:41:42.911Z,34.51
2019-02-22T00:42:42.880Z,36.70
2019-02-22T00:43:42.873Z,35.84
2019-02-22T00:44:42.873Z,36.98
2019-02-22T00:45:42.872Z,36.41
2019-02-22T00:46:42.915Z,37.08
2019-02-22T00:47:42.864Z,38.41
2019-02-22T00:48:42.862Z,38.70
2019-02-22T00:49:42.855Z,38.31
2019-02-22T00:50:42.855Z,37.93
2019-02-22T00:51:42.882Z,37.18
2019-02-22T00:52:42.892Z,36.41
2019-02-22T00:53:42.858Z,38.12
2019-02-22T00:54:42.853Z,40.03
2019-02-22T00:55:42.846Z,38.60
2019-02-22T00:56:42.876Z,38.51
2019-02-22T00:57:42.840Z,40.59
2019-02-22T00:58:42.834Z,40.12
2019-02-22T00:59:42.831Z,39.93
2019-02-22T01:00:42.841Z,40.31
2019-02-22T01:01:42.871Z,41.46
2019-02-22T01:02:42.827Z,42.88
2019-02-22T01:03:42.821Z,43.35
2019-02-22T01:04:42.823Z,43.26
2019-02-22T01:05:42.822Z,41.93
2019-02-22T01:06:42.843Z,42.79
2019-02-22T01:07:42.858Z,42.31
2019-02-22T01:08:42.815Z,42.69
2019-02-22T01:09:42.815Z,41.64
2019-02-22T01:10:42.806Z,40.79
2019-02-22T01:11:42.842Z,40.79
2019-02-22T01:12:42.801Z,40.31
2019-02-22T01:13:42.795Z,39.93
2019-02-22T01:14:42.801Z,40.03
2019-02-22T01:15:42.797Z,40.50
2019-02-22T01:16:42.833Z,39.26
2019-02-22T01:17:42.799Z,38.51
2019-02-22T01:18:42.792Z,37.37
2019-02-22T01:19:42.796Z,36.79
2019-02-22T01:20:53.727Z,35.75
2019-02-22T01:21:42.820Z,34.99
2019-02-22T01:22:42.788Z,34.32
2019-02-22T01:23:42.783Z,33.37
2019-02-22T01:24:42.772Z,33.09
2019-02-22T01:25:42.780Z,31.47
2019-02-22T01:26:42.807Z,31.18
2019-02-22T01:27:42.764Z,29.75
2019-02-22T01:28:42.771Z,29.47
2019-02-22T01:29:42.770Z,28.81
2019-02-22T01:30:42.761Z,28.52
2019-02-22T01:31:42.798Z,27.19
2019-02-22T01:32:42.759Z,26.14
2019-02-22T01:33:42.757Z,25.20
2019-02-22T01:34:42.759Z,24.24
2019-02-22T01:35:42.752Z,23.48
2019-02-22T01:36:42.786Z,22.80
2019-02-22T01:37:42.746Z,22.06
2019-02-22T01:38:42.748Z,21.58
2019-02-22T01:39:42.742Z,21.39
2019-02-22T01:40:44.126Z,21.11
2019-02-22T01:41:42.777Z,21.39
2019-02-22T01:42:42.736Z,21.20
2019-02-22T01:43:42.734Z,20.73
2019-02-22T01:44:42.731Z,20.15
2019-02-22T01:45:42.726Z,20.24
2019-02-22T01:46:42.726Z,19.86
2019-02-22T01:47:42.766Z,19.59
2019-02-22T01:48:42.722Z,19.49
2019-02-22T01:49:42.713Z,19.68
2019-02-22T01:50:42.715Z,19.59
2019-02-22T01:51:42.719Z,19.57
2019-02-22T01:52:42.746Z,19.38
2019-02-22T01:53:42.709Z,19.20
2019-02-22T01:54:42.762Z,18.72
2019-02-22T01:55:42.702Z,19.11
2019-02-22T01:56:42.697Z,18.92
2019-02-22T01:57:42.725Z,18.35
2019-02-22T01:58:48.693Z,18.82
2019-02-22T01:59:42.695Z,18.62
2019-02-22T02:00:42.688Z,18.53
2019-02-22T02:01:42.685Z,19.01
2019-02-22T02:02:42.713Z,18.91
2019-02-22T02:03:42.688Z,18.82
2019-02-22T02:04:42.714Z,18.44
2019-02-22T02:05:42.753Z,17.97
2019-02-22T02:06:42.678Z,18.16
2019-02-22T02:07:42.705Z,18.26
2019-02-22T02:08:42.669Z,17.49
2019-02-22T02:09:42.666Z,16.83
2019-02-22T02:10:53.422Z,15.97
2019-02-22T02:11:42.667Z,15.11
2019-02-22T02:12:42.695Z,14.44
2019-02-22T02:13:42.657Z,13.02
2019-02-22T02:14:43.313Z,11.30
2019-02-22T02:15:42.664Z,9.22
2019-02-22T02:16:42.649Z,7.70
2019-02-22T02:17:42.695Z,5.79
2019-02-22T02:18:42.653Z,3.80
2019-02-22T02:19:42.648Z,1.71
2019-02-22T02:20:42.654Z,0.00
2019-02-22T02:21:42.648Z,0.00
2019-02-22T02:22:42.679Z,0.00
2019-02-22T02:23:42.641Z,0.00
2019-02-22T02:24:42.641Z,0.00
2019-02-22T02:25:42.635Z,0.00
2019-02-22T02:26:42.633Z,0.00
2019-02-22T02:27:42.660Z,0.00
2019-02-22T02:28:42.631Z,0.00
2019-02-22T02:29:42.628Z,0.00
2019-02-22T02:30:42.625Z,0.00
2019-02-22T02:31:42.620Z,0.00
2019-02-22T02:32:42.646Z,0.00
2019-02-22T02:33:42.643Z,0.00
2019-02-22T02:34:42.617Z,0.00
2019-02-22T02:35:42.613Z,0.00
2019-02-22T02:36:42.610Z,0.00
2019-02-22T02:37:42.635Z,0.00
2019-02-22T02:38:42.612Z,0.00
2019-02-22T02:39:42.605Z,0.00
2019-02-22T02:40:42.599Z,0.00
2019-02-22T02:41:42.595Z,0.00
2019-02-22T02:42:42.592Z,0.00
2019-02-22T02:43:42.621Z,0.00
2019-02-22T02:44:42.586Z,0.00
2019-02-22T02:45:42.583Z,0.00
2019-02-22T02:46:42.585Z,0.00
2019-02-22T02:47:42.584Z,0.00
2019-02-22T02:48:42.612Z,0.00
2019-02-22T02:49:42.611Z,0.00
2019-02-22T02:50:42.574Z,0.00
2019-02-22T02:51:42.574Z,0.00
2019-02-22T02:52:42.573Z,0.00
2019-02-22T02:53:42.601Z,0.00
2019-02-22T02:54:42.562Z,0.00
2019-02-22T02:55:42.562Z,0.00
2019-02-22T02:56:42.561Z,0.00
2019-02-22T02:57:42.562Z,0.00
2019-02-22T02:58:42.584Z,0.00
2019-02-22T02:59:42.552Z,0.00
2019-02-22T03:00:42.548Z,0.00
2019-02-22T03:01:42.543Z,0.00
2019-02-22T03:02:42.544Z,0.00
2019-02-22T03:03:42.566Z,0.00
2019-02-22T03:04:42.542Z,0.00
2019-02-22T03:05:42.535Z,0.00
2019-02-22T03:06:42.531Z,0.00
2019-02-22T03:07:42.533Z,0.00
2019-02-22T03:08:42.558Z,0.00
2019-02-22T03:09:42.557Z,0.00
2019-02-22T03:10:42.533Z,0.00
2019-02-22T03:11:42.553Z,0.00
2019-02-22T03:12:42.528Z,0.00
2019-02-22T03:13:42.546Z,0.00
2019-02-22T03:14:42.517Z,0.00
2019-02-22T03:15:42.511Z,0.00
2019-02-22T03:16:42.512Z,0.00
2019-02-22T03:17:42.504Z,0.00
2019-02-22T03:18:42.532Z,0.00
2019-02-22T03:19:42.505Z,0.00
2019-02-22T03:20:42.500Z,0.00
2019-02-22T03:21:42.516Z,0.00
2019-02-22T03:22:42.491Z,0.00
2019-02-22T03:23:42.517Z,0.00
2019-02-22T03:24:42.516Z,0.00
2019-02-22T03:25:42.494Z,0.00
2019-02-22T03:26:42.486Z,0.00
2019-02-22T03:27:42.481Z,0.00
2019-02-22T03:28:42.510Z,0.00
2019-02-22T03:29:42.475Z,0.00
2019-02-22T03:30:42.534Z,0.00
2019-02-22T03:31:42.521Z,0.00
2019-02-22T03:32:42.469Z,0.00
2019-02-22T03:33:42.533Z,0.00
2019-02-22T03:34:42.469Z,0.00
2019-02-22T03:35:42.460Z,0.00
2019-02-22T03:36:42.463Z,0.00
2019-02-22T03:37:42.460Z,0.00
2019-02-22T03:38:42.481Z,0.00
2019-02-22T03:39:42.452Z,0.00
2019-02-22T03:40:42.454Z,0.00
2019-02-22T03:41:42.446Z,0.00
2019-02-22T03:42:42.449Z,0.00
2019-02-22T03:43:42.486Z,0.00
2019-02-22T03:44:42.470Z,0.00
2019-02-22T03:45:42.445Z,0.00
2019-02-22T03:46:42.432Z,0.00
2019-02-22T03:47:42.435Z,0.00
2019-02-22T03:48:42.464Z,0.00
2019-02-22T03:49:42.432Z,0.00
2019-02-22T03:50:42.457Z,0.00
2019-02-22T03:51:42.420Z,0.00
2019-02-22T03:52:42.421Z,0.00
2019-02-22T03:53:42.438Z,0.00
2019-02-22T03:54:42.445Z,0.00
2019-02-22T03:55:42.413Z,0.00
2019-02-22T03:56:42.409Z,0.00
2019-02-22T03:57:42.409Z,0.00
2019-02-22T03:58:42.404Z,0.00
2019-02-22T03:59:42.466Z,0.00
2019-02-22T04:00:42.428Z,0.00
2019-02-22T04:01:42.406Z,0.00
2019-02-22T04:02:42.400Z,0.00
2019-02-22T04:03:42.392Z,0.00
2019-02-22T04:04:42.519Z,0.00
2019-02-22T04:05:42.389Z,0.00
2019-02-22T04:06:42.441Z,0.00
2019-02-22T04:07:42.389Z,0.00
2019-02-22T04:08:42.384Z,0.00
2019-02-22T04:09:42.412Z,0.00
2019-02-22T04:10:42.383Z,0.00
2019-02-22T04:11:45.995Z,0.00
2019-02-22T04:12:42.369Z,0.00
2019-02-22T04:13:42.373Z,0.00
2019-02-22T04:14:42.398Z,0.00
2019-02-22T04:15:42.360Z,0.00
2019-02-22T04:16:42.362Z,0.00
2019-02-22T04:17:42.362Z,0.00
2019-02-22T04:18:42.359Z,0.00
2019-02-22T04:19:42.382Z,0.00
2019-02-22T04:20:42.352Z,0.00
2019-02-22T04:21:42.351Z,0.00
2019-02-22T04:22:44.425Z,0.00
2019-02-22T04:23:42.341Z,0.00
2019-02-22T04:24:42.370Z,0.00
2019-02-22T04:25:42.339Z,0.00
2019-02-22T04:26:42.337Z,0.00
2019-02-22T04:27:42.337Z,0.00
2019-02-22T04:28:42.331Z,0.00
2019-02-22T04:29:42.356Z,0.00
2019-02-22T04:30:42.360Z,0.00
2019-02-22T04:31:42.325Z,0.00
2019-02-22T04:32:42.321Z,0.00
2019-02-22T04:33:42.324Z,0.00
2019-02-22T04:34:42.345Z,0.00
2019-02-22T04:35:42.313Z,0.00
2019-02-22T04:36:42.319Z,0.00
2019-02-22T04:37:42.318Z,0.00
2019-02-22T04:38:42.308Z,0.00
2019-02-22T04:39:42.335Z,0.00
2019-02-22T04:40:42.302Z,0.00
2019-02-22T04:41:42.297Z,0.00
2019-02-22T04:42:42.297Z,0.00
2019-02-22T04:43:42.299Z,0.00
2019-02-22T04:44:42.322Z,0.00
2019-02-22T04:45:42.323Z,0.00
2019-02-22T04:46:42.292Z,0.00
2019-02-22T04:47:42.286Z,0.00
2019-02-22T04:48:42.281Z,0.00
2019-02-22T04:49:42.315Z,0.00
2019-02-22T04:50:42.306Z,0.00
2019-02-22T04:51:42.303Z,0.00
2019-02-22T04:52:42.279Z,0.00
2019-02-22T04:53:42.270Z,0.00
2019-02-22T04:54:42.306Z,0.00
2019-02-22T04:55:42.283Z,0.00
2019-02-22T04:56:42.278Z,0.00
2019-02-22T04:57:42.296Z,0.00
2019-02-22T04:58:42.259Z,0.00
2019-02-22T04:59:42.287Z,0.00
2019-02-22T05:00:42.283Z,0.00
2019-02-22T05:01:42.254Z,0.00
2019-02-22T05:02:42.253Z,0.00
2019-02-22T05:03:42.249Z,0.00
2019-02-22T05:04:42.246Z,0.00
2019-02-22T05:05:42.273Z,0.00
2019-02-22T05:06:42.242Z,0.00
2019-02-22T05:07:42.261Z,0.00
2019-02-22T05:08:42.237Z,0.00
2019-02-22T05:09:42.240Z,0.00
2019-02-22T05:10:42.291Z,0.00
2019-02-22T05:11:42.237Z,0.00
2019-02-22T05:12:42.231Z,0.00
2019-02-22T05:13:42.226Z,0.00
2019-02-22T05:14:42.227Z,0.00
2019-02-22T05:15:42.252Z,0.00
2019-02-22T05:16:42.212Z,0.00
2019-02-22T05:17:42.245Z,0.00
2019-02-22T05:18:42.210Z,0.00
2019-02-22T05:19:42.211Z,0.00
2019-02-22T05:20:42.234Z,0.00
2019-02-22T05:21:42.208Z,0.00
2019-02-22T05:22:42.199Z,0.00
2019-02-22T05:23:42.226Z,0.00
2019-02-22T05:24:42.195Z,0.00
2019-02-22T05:25:42.194Z,0.00
2019-02-22T05:26:42.191Z,0.00
2019-02-22T05:27:42.186Z,0.00
2019-02-22T05:28:42.213Z,0.00
2019-02-22T05:29:42.184Z,0.00
2019-02-22T05:30:42.212Z,0.00
2019-02-22T05:31:42.194Z,0.00
2019-02-22T05:32:42.174Z,0.00
2019-02-22T05:33:42.183Z,0.00
2019-02-22T05:34:42.174Z,0.00
2019-02-22T05:35:42.196Z,0.00
2019-02-22T05:36:44.127Z,0.00
2019-02-22T05:37:42.166Z,0.00
2019-02-22T05:38:42.167Z,0.00
2019-02-22T05:39:42.188Z,0.00
2019-02-22T05:40:42.182Z,0.00
2019-02-22T05:41:42.155Z,0.00
2019-02-22T05:42:42.154Z,0.00
2019-02-22T05:43:42.151Z,0.00
2019-02-22T05:44:42.144Z,0.00
2019-02-22T05:45:42.172Z,0.00
2019-02-22T05:46:42.140Z,0.00
2019-02-22T05:47:42.135Z,0.00
2019-02-22T05:48:42.138Z,0.00
2019-02-22T05:49:42.139Z,0.00
2019-02-22T05:50:42.158Z,0.00
2019-02-22T05:51:42.128Z,0.00
2019-02-22T05:52:42.133Z,0.00
2019-02-22T05:53:42.123Z,0.00
2019-02-22T05:54:42.120Z,0.00
2019-02-22T05:55:44.247Z,0.00
2019-02-22T05:56:42.119Z,0.00
2019-02-22T05:57:42.114Z,0.00
2019-02-22T05:58:42.107Z,0.00
2019-02-22T05:59:42.107Z,0.00
2019-02-22T06:00:42.103Z,0.00
2019-02-22T06:01:42.133Z,0.00
2019-02-22T06:02:42.100Z,0.00
2019-02-22T06:03:42.079Z,0.00
2019-02-22T06:04:42.098Z,0.00
2019-02-22T06:05:42.099Z,0.00
2019-02-22T06:06:42.118Z,0.00
2019-02-22T06:07:42.083Z,0.00
2019-02-22T06:08:42.079Z,0.00
2019-02-22T06:09:42.148Z,0.00
2019-02-22T06:10:42.076Z,0.00
2019-02-22T06:11:42.113Z,0.00
2019-02-22T06:12:42.102Z,0.00
2019-02-22T06:13:42.069Z,0.00
2019-02-22T06:14:42.066Z,0.00
2019-02-22T06:15:42.094Z,0.00
2019-02-22T06:16:42.100Z,0.00
2019-02-22T06:17:42.060Z,0.00
2019-02-22T06:18:42.058Z,0.00
2019-02-22T06:19:42.202Z,0.00
2019-02-22T06:20:42.076Z,0.00
2019-02-22T06:21:42.071Z,0.00
2019-02-22T06:22:42.054Z,0.00
2019-02-22T06:23:42.042Z,0.00
2019-02-22T06:24:42.042Z,0.00
2019-02-22T06:25:42.036Z,0.00
2019-02-22T06:26:42.058Z,0.00
2019-02-22T06:27:42.039Z,0.00
2019-02-22T06:28:42.030Z,0.00
2019-02-22T06:29:42.025Z,0.00
2019-02-22T06:30:42.030Z,0.00
2019-02-22T06:31:42.048Z,0.00
2019-02-22T06:32:42.443Z,0.00
2019-02-22T06:33:42.019Z,0.00
2019-02-22T06:34:42.035Z,0.00
2019-02-22T06:35:42.008Z,0.00
2019-02-22T06:36:42.036Z,0.00
2019-02-22T06:37:42.035Z,0.00
2019-02-22T06:38:42.002Z,0.00
2019-02-22T06:39:41.997Z,0.00
2019-02-22T06:40:41.996Z,0.00
2019-02-22T06:41:42.036Z,0.00
2019-02-22T06:42:45.909Z,0.00
2019-02-22T06:43:41.988Z,0.00
2019-02-22T06:44:41.984Z,0.00
2019-02-22T06:45:41.994Z,0.00
2019-02-22T06:46:42.016Z,0.00
2019-02-22T06:47:41.980Z,0.00
2019-02-22T06:48:41.976Z,0.00
2019-02-22T06:49:44.366Z,0.00
2019-02-22T06:50:41.974Z,0.00
2019-02-22T06:51:41.996Z,0.00
2019-02-22T06:52:41.965Z,0.00
2019-02-22T06:53:41.961Z,0.00
2019-02-22T06:54:41.963Z,0.00
2019-02-22T06:55:41.958Z,0.00
2019-02-22T06:56:41.987Z,0.00
2019-02-22T06:57:41.955Z,0.00
2019-02-22T06:58:41.949Z,0.00
2019-02-22T06:59:41.944Z,0.00
2019-02-22T07:00:41.940Z,0.00
2019-02-22T07:01:41.942Z,0.00
2019-02-22T07:02:41.965Z,0.00
2019-02-22T07:03:41.933Z,0.00
2019-02-22T07:04:41.936Z,0.00
2019-02-22T07:05:41.934Z,0.00
2019-02-22T07:06:41.932Z,0.00
2019-02-22T07:07:41.951Z,0.00
2019-02-22T07:08:41.936Z,0.00
2019-02-22T07:09:41.917Z,0.00
2019-02-22T07:10:41.918Z,0.00
2019-02-22T07:11:41.917Z,0.00
2019-02-22T07:12:41.943Z,0.00
2019-02-22T07:13:41.909Z,0.00
2019-02-22T07:14:41.905Z,0.00
2019-02-22T07:15:41.902Z,0.00
2019-02-22T07:16:41.901Z,0.00
2019-02-22T07:17:41.925Z,0.00
2019-02-22T07:18:41.929Z,0.00
2019-02-22T07:19:41.890Z,0.00
2019-02-22T07:20:41.886Z,0.00
2019-02-22T07:21:52.109Z,0.00
2019-02-22T07:22:41.913Z,0.00
2019-02-22T07:23:41.881Z,0.00
2019-02-22T07:24:41.877Z,0.00
2019-02-22T07:25:41.881Z,0.00
2019-02-22T07:26:41.878Z,0.00
2019-02-22T07:27:41.899Z,0.00
2019-02-22T07:28:41.903Z,0.00
2019-02-22T07:29:41.865Z,0.00
2019-02-22T07:30:41.863Z,0.00
2019-02-22T07:31:41.863Z,0.00
2019-02-22T07:32:41.959Z,0.00
2019-02-22T07:33:41.855Z,0.00
2019-02-22T07:34:41.855Z,0.00
2019-02-22T07:35:41.870Z,0.00
2019-02-22T07:36:41.846Z,0.00
2019-02-22T07:37:41.873Z,0.00
2019-02-22T07:38:41.844Z,0.00
2019-02-22T07:39:41.837Z,0.00
2019-02-22T07:40:41.837Z,0.00
2019-02-22T07:41:41.833Z,0.00
2019-02-22T07:42:41.861Z,0.00
2019-02-22T07:43:41.831Z,0.00
2019-02-22T07:44:41.829Z,0.00
2019-02-22T07:45:41.824Z,0.00
2019-02-22T07:46:41.822Z,0.00
2019-02-22T07:47:41.846Z,0.00
2019-02-22T07:48:41.847Z,0.00
2019-02-22T07:49:41.815Z,0.00
2019-02-22T07:50:42.605Z,0.00
2019-02-22T07:51:41.803Z,0.00
2019-02-22T07:52:41.833Z,0.00
2019-02-22T07:53:41.808Z,0.00
2019-02-22T07:54:41.830Z,0.00
2019-02-22T07:55:41.799Z,0.00
2019-02-22T07:56:41.796Z,0.00
2019-02-22T07:57:41.819Z,0.00
2019-02-22T07:58:41.792Z,0.00
2019-02-22T07:59:41.787Z,0.00
2019-02-22T08:00:41.814Z,0.00
2019-02-22T08:01:47.474Z,0.00
2019-02-22T08:02:41.783Z,0.00
2019-02-22T08:03:41.806Z,0.00
2019-02-22T08:04:41.774Z,0.00
2019-02-22T08:05:41.776Z,0.00
2019-02-22T08:06:42.575Z,0.00
2019-02-22T08:07:41.769Z,0.00
2019-02-22T08:08:41.797Z,0.00
2019-02-22T08:09:41.766Z,0.00
2019-02-22T08:10:41.761Z,0.00
2019-02-22T08:11:41.774Z,0.00
2019-02-22T08:12:41.756Z,0.00
2019-02-22T08:13:41.784Z,0.00
2019-02-22T08:14:41.750Z,0.00
2019-02-22T08:15:41.749Z,0.00
2019-02-22T08:16:41.748Z,0.00
2019-02-22T08:17:41.746Z,0.00
2019-02-22T08:18:41.770Z,0.00
2019-02-22T08:19:41.740Z,0.00
2019-02-22T08:20:41.738Z,0.00
2019-02-22T08:21:41.736Z,0.00
2019-02-22T08:22:41.740Z,0.00
2019-02-22T08:23:41.758Z,0.00
2019-02-22T08:24:41.726Z,0.00
2019-02-22T08:25:41.737Z,0.00
2019-02-22T08:26:41.724Z,0.00
2019-02-22T08:27:52.705Z,0.00
2019-02-22T08:28:41.745Z,0.00
2019-02-22T08:29:41.715Z,0.00
2019-02-22T08:30:41.717Z,0.00
2019-02-22T08:31:41.710Z,0.00
2019-02-22T08:32:41.707Z,0.00
2019-02-22T08:33:41.735Z,0.00
2019-02-22T08:34:41.703Z,0.00
2019-02-22T08:35:41.700Z,0.00
2019-02-22T08:36:41.699Z,0.00
2019-02-22T08:37:41.723Z,0.00
2019-02-22T08:38:41.718Z,0.00
2019-02-22T08:39:41.694Z,0.00
2019-02-22T08:40:41.686Z,0.00
2019-02-22T08:41:41.691Z,0.00
2019-02-22T08:42:41.684Z,0.00
2019-02-22T08:43:41.708Z,0.00
2019-02-22T08:44:41.680Z,0.00
2019-02-22T08:45:41.675Z,0.00
2019-02-22T08:46:41.673Z,0.00
2019-02-22T08:47:41.670Z,0.00
2019-02-22T08:48:41.667Z,0.00
2019-02-22T08:49:41.695Z,0.00
2019-02-22T08:50:41.666Z,0.00
2019-02-22T08:51:41.659Z,0.00
2019-02-22T08:52:41.654Z,0.00
2019-02-22T08:53:41.656Z,0.00
2019-02-22T08:54:47.187Z,0.00
2019-02-22T08:55:41.682Z,0.00
2019-02-22T08:56:41.647Z,0.00
2019-02-22T08:57:41.648Z,0.00
2019-02-22T08:58:41.654Z,0.00
2019-02-22T08:59:41.639Z,0.00
2019-02-22T09:00:41.666Z,0.00
2019-02-22T09:01:41.637Z,0.00
2019-02-22T09:02:41.635Z,0.00
2019-02-22T09:03:49.738Z,0.00
2019-02-22T09:04:41.656Z,0.00
2019-02-22T09:05:41.623Z,0.00
2019-02-22T09:06:41.631Z,0.00
2019-02-22T09:07:41.626Z,0.00
2019-02-22T09:08:41.616Z,0.00
2019-02-22T09:09:41.643Z,0.00
2019-02-22T09:10:41.611Z,0.00
2019-02-22T09:11:41.607Z,0.00
2019-02-22T09:12:41.609Z,0.00
2019-02-22T09:13:43.801Z,0.00
2019-02-22T09:14:41.627Z,0.00
2019-02-22T09:15:41.608Z,0.00
2019-02-22T09:16:41.595Z,0.00
2019-02-22T09:17:41.598Z,0.00
2019-02-22T09:18:41.595Z,0.00
2019-02-22T09:19:41.616Z,0.00
2019-02-22T09:20:41.626Z,0.00
2019-02-22T09:21:41.585Z,0.00
2019-02-22T09:22:41.585Z,0.00
2019-02-22T09:23:41.580Z,0.00
2019-02-22T09:24:41.611Z,0.00
2019-02-22T09:25:41.575Z,0.00
2019-02-22T09:26:41.575Z,0.00
2019-02-22T09:27:41.575Z,0.00
2019-02-22T09:28:41.571Z,0.00
2019-02-22T09:29:41.616Z,0.00
2019-02-22T09:30:41.568Z,0.00
2019-02-22T09:31:41.563Z,0.00
2019-02-22T09:32:41.559Z,0.00
2019-02-22T09:33:41.560Z,0.00
2019-02-22T09:34:41.588Z,0.00
2019-02-22T09:35:41.557Z,0.00
2019-02-22T09:36:41.643Z,0.00
2019-02-22T09:37:41.565Z,0.00
2019-02-22T09:38:41.548Z,0.00
2019-02-22T09:39:41.572Z,0.00
2019-02-22T09:40:41.587Z,0.00
2019-02-22T09:41:41.545Z,0.00
2019-02-22T09:42:41.540Z,0.00
2019-02-22T09:43:41.537Z,0.00
2019-02-22T09:44:41.565Z,0.00
2019-02-22T09:45:41.560Z,0.00
2019-02-22T09:46:41.530Z,0.00
2019-02-22T09:47:41.530Z,0.00
2019-02-22T09:48:41.622Z,0.00
2019-02-22T09:49:41.556Z,0.00
2019-02-22T09:50:41.522Z,0.00
2019-02-22T09:51:41.525Z,0.00
2019-02-22T09:52:41.516Z,0.00
2019-02-22T09:53:41.518Z,0.00
2019-02-22T09:54:41.540Z,0.00
2019-02-22T09:55:41.507Z,0.00
2019-02-22T09:56:41.511Z,0.00
2019-02-22T09:57:41.516Z,0.00
2019-02-22T09:58:41.505Z,0.00
2019-02-22T09:59:41.504Z,0.00
2019-02-22T10:00:41.530Z,0.00
2019-02-22T10:01:41.496Z,0.00
2019-02-22T10:02:41.505Z,0.00
2019-02-22T10:03:41.495Z,0.00
2019-02-22T10:04:41.519Z,0.00
2019-02-22T10:05:41.516Z,0.00
2019-02-22T10:06:41.550Z,0.00
2019-02-22T10:07:41.482Z,0.00
2019-02-22T10:08:41.482Z,0.00
2019-02-22T10:09:41.476Z,0.00
2019-02-22T10:10:41.507Z,0.00
2019-02-22T10:11:41.546Z,0.00
2019-02-22T10:12:41.511Z,0.00
2019-02-22T10:13:41.468Z,0.00
2019-02-22T10:14:41.464Z,0.00
2019-02-22T10:15:41.496Z,0.00
2019-02-22T10:16:41.517Z,0.00
2019-02-22T10:17:41.471Z,0.00
2019-02-22T10:18:41.462Z,0.00
2019-02-22T10:19:41.459Z,0.00
2019-02-22T10:20:41.777Z,0.00
2019-02-22T10:21:41.454Z,0.00
2019-02-22T10:22:41.450Z,0.00
2019-02-22T10:23:41.481Z,0.00
2019-02-22T10:24:41.444Z,0.00
2019-02-22T10:25:41.472Z,0.00
2019-02-22T10:26:41.449Z,0.00
2019-02-22T10:27:41.447Z,0.00
2019-02-22T10:28:41.435Z,0.00
2019-02-22T10:29:41.466Z,0.00
2019-02-22T10:30:41.492Z,0.00
2019-02-22T10:31:41.451Z,0.00
2019-02-22T10:32:41.453Z,0.00
2019-02-22T10:33:41.429Z,0.00
2019-02-22T10:34:41.430Z,0.00
2019-02-22T10:35:41.452Z,0.00
2019-02-22T10:36:45.062Z,0.00
2019-02-22T10:37:41.421Z,0.00
2019-02-22T10:38:41.425Z,0.00
2019-02-22T10:39:41.417Z,0.00
2019-02-22T10:40:41.451Z,0.00
2019-02-22T10:41:41.427Z,0.00
2019-02-22T10:42:41.415Z,0.00
2019-02-22T10:43:41.408Z,0.00
2019-02-22T10:44:41.411Z,0.00
2019-02-22T10:45:41.439Z,0.00
2019-02-22T10:46:41.413Z,0.00
2019-02-22T10:47:41.422Z,0.00
2019-02-22T10:48:41.410Z,0.00
2019-02-22T10:49:41.393Z,0.00
2019-02-22T10:50:41.427Z,0.00
2019-02-22T10:51:41.420Z,0.00
2019-02-22T10:52:41.416Z,0.00
2019-02-22T10:53:41.390Z,0.00
2019-02-22T10:54:41.386Z,0.00
2019-02-22T10:55:41.415Z,0.00
2019-02-22T10:56:41.383Z,0.00
2019-02-22T10:57:41.405Z,0.00
2019-02-22T10:58:41.385Z,0.00
2019-02-22T10:59:41.377Z,0.00
2019-02-22T11:00:41.408Z,0.00
2019-02-22T11:01:41.368Z,0.00
2019-02-22T11:02:41.372Z,0.00
2019-02-22T11:03:41.368Z,0.00
2019-02-22T11:04:41.363Z,0.00
2019-02-22T11:05:41.394Z,0.00
2019-02-22T11:06:41.375Z,0.00
2019-02-22T11:07:41.356Z,0.00
2019-02-22T11:08:41.356Z,0.00
2019-02-22T11:09:41.350Z,0.00
2019-02-22T11:10:41.378Z,0.00
2019-02-22T11:11:41.347Z,0.00
2019-02-22T11:12:41.352Z,0.00
2019-02-22T11:13:41.341Z,0.00
2019-02-22T11:14:41.344Z,0.00
2019-02-22T11:15:41.338Z,0.00
2019-02-22T11:16:41.582Z,0.00
2019-02-22T11:17:41.338Z,0.00
2019-02-22T11:18:41.328Z,0.00
2019-02-22T11:19:41.325Z,0.00
2019-02-22T11:20:41.325Z,0.00
2019-02-22T11:21:41.348Z,0.00
2019-02-22T11:22:41.323Z,0.00
2019-02-22T11:23:41.318Z,0.00
2019-02-22T11:24:41.316Z,0.00
2019-02-22T11:25:41.331Z,0.00
2019-02-22T11:26:41.345Z,0.00
2019-02-22T11:27:41.309Z,0.00
2019-02-22T11:28:41.306Z,0.00
2019-02-22T11:29:41.302Z,0.00
2019-02-22T11:30:41.308Z,0.00
2019-02-22T11:31:41.327Z,0.00
2019-02-22T11:32:41.295Z,0.00
2019-02-22T11:33:41.296Z,0.00
2019-02-22T11:34:41.296Z,0.00
2019-02-22T11:35:41.287Z,0.00
2019-02-22T11:36:41.327Z,0.00
2019-02-22T11:37:41.282Z,0.00
2019-02-22T11:38:41.285Z,0.00
2019-02-22T11:39:41.278Z,0.00
2019-02-22T11:40:41.284Z,0.00
2019-02-22T11:41:41.303Z,0.00
2019-02-22T11:42:41.274Z,0.00
2019-02-22T11:43:41.265Z,0.00
2019-02-22T11:44:41.276Z,0.00
2019-02-22T11:45:41.263Z,0.00
2019-02-22T11:46:41.284Z,0.00
2019-02-22T11:47:41.258Z,0.00
2019-02-22T11:48:41.266Z,0.00
2019-02-22T11:49:41.262Z,0.00
2019-02-22T11:50:41.245Z,0.00
2019-02-22T11:51:41.280Z,0.00
2019-02-22T11:52:41.337Z,0.00
2019-02-22T11:53:41.241Z,0.00
2019-02-22T11:54:41.234Z,0.00
2019-02-22T11:55:41.229Z,0.00
2019-02-22T11:56:41.256Z,0.00
2019-02-22T11:57:41.233Z,0.00
2019-02-22T11:58:41.226Z,0.00
2019-02-22T11:59:41.218Z,0.00
2019-02-22T12:00:41.219Z,0.00
2019-02-22T12:01:41.245Z,0.00
2019-02-22T12:02:41.211Z,0.00
2019-02-22T12:03:41.217Z,0.00
2019-02-22T12:04:41.211Z,0.00
2019-02-22T12:05:41.201Z,0.00
2019-02-22T12:06:41.244Z,0.00
2019-02-22T12:07:41.195Z,0.00
2019-02-22T12:08:41.189Z,0.00
2019-02-22T12:09:41.191Z,0.00
2019-02-22T12:10:41.211Z,0.00
2019-02-22T12:11:41.244Z,0.00
2019-02-22T12:12:41.194Z,0.00
2019-02-22T12:13:41.222Z,0.00
2019-02-22T12:14:50.899Z,0.00
2019-02-22T12:15:41.171Z,0.00
2019-02-22T12:16:41.169Z,0.00
2019-02-22T12:17:41.199Z,0.00
2019-02-22T12:18:41.161Z,0.00
2019-02-22T12:19:41.177Z,0.00
2019-02-22T12:20:41.153Z,0.00
2019-02-22T12:21:41.151Z,0.00
2019-02-22T12:22:41.180Z,0.00
2019-02-22T12:23:41.150Z,0.00
2019-02-22T12:24:41.143Z,0.00
2019-02-22T12:25:41.136Z,0.00
2019-02-22T12:26:41.133Z,0.00
2019-02-22T12:27:41.163Z,0.00
2019-02-22T12:28:41.131Z,0.00
2019-02-22T12:29:41.126Z,0.00
2019-02-22T12:30:41.122Z,0.00
2019-02-22T12:31:41.119Z,0.00
2019-02-22T12:32:41.152Z,0.00
2019-02-22T12:33:41.113Z,0.00
2019-02-22T12:34:41.118Z,0.00
2019-02-22T12:35:41.107Z,0.00
2019-02-22T12:36:41.108Z,0.00
2019-02-22T12:37:41.143Z,0.00
2019-02-22T12:38:41.097Z,0.00
2019-02-22T12:39:41.093Z,0.00
2019-02-22T12:40:41.094Z,0.00
2019-02-22T12:41:41.090Z,0.00
2019-02-22T12:42:41.112Z,0.00
2019-02-22T12:43:41.084Z,0.00
2019-02-22T12:44:41.080Z,0.00
2019-02-22T12:45:41.074Z,0.00
2019-02-22T12:46:41.073Z,0.00
2019-02-22T12:47:41.100Z,0.00
2019-02-22T12:48:41.065Z,0.00
2019-02-22T12:49:41.062Z,0.00
2019-02-22T12:50:41.059Z,0.00
2019-02-22T12:51:41.063Z,0.00
2019-02-22T12:52:41.081Z,0.00
2019-02-22T12:53:41.051Z,0.00
2019-02-22T12:54:41.051Z,0.00
2019-02-22T12:55:41.051Z,0.00
2019-02-22T12:56:58.019Z,0.00
2019-02-22T12:57:41.066Z,0.00
2019-02-22T12:58:41.077Z,0.00
2019-02-22T12:59:41.029Z,0.00
2019-02-22T13:00:41.025Z,0.00
2019-02-22T13:01:41.021Z,0.00
2019-02-22T13:02:41.055Z,0.00
2019-02-22T13:03:41.021Z,0.00
2019-02-22T13:04:41.015Z,0.00
2019-02-22T13:05:41.009Z,0.00
2019-02-22T13:06:41.012Z,0.00
2019-02-22T13:07:41.042Z,0.00
2019-02-22T13:08:41.005Z,0.00
2019-02-22T13:09:40.997Z,0.00
2019-02-22T13:10:40.996Z,0.00
2019-02-22T13:11:40.993Z,0.00
2019-02-22T13:12:40.990Z,0.00
2019-02-22T13:13:41.013Z,0.00